Time;durP1;ratioP1;P1;durP2;ratioP2;P2;SDS_P1;SDS_P2;PMS_P1;PMS_P2;Temp;Humidity;BMP_temperature;BMP_pressure;BME280_temperature;BME280_humidity;BME280_pressure;Samples;Min_cycle;Max_cycle;Signal;HPM_P1;HPM_P2
2022/09/22 00:01:12;;;;;;;6.53;3.33;;;;;;;;;;4960791;28;20180;-52
2022/09/22 00:03:40;;;;;;;3.90;3.43;;;;;;;;;;4967456;28;20652;-53
2022/09/22 00:06:08;;;;;;;3.57;3.00;;;;;;;;;;4942263;28;20443;-52
2022/09/22 00:08:35;;;;;;;3.60;3.27;;;;;;;;;;4962993;28;20242;-52
2022/09/22 00:11:04;;;;;;;3.57;3.27;;;;;;;;;;4961413;28;20235;-52
2022/09/22 00:13:31;;;;;;;4.93;3.23;;;;;;;;;;4966940;28;20194;-52
2022/09/22 00:15:59;;;;;;;3.70;3.30;;;;;;;;;;4963883;28;20294;-52
2022/09/22 00:18:27;;;;;;;4.17;3.10;;;;;;;;;;4967896;28;20210;-53
2022/09/22 00:20:54;;;;;;;4.93;3.17;;;;;;;;;;4966627;28;20705;-52
2022/09/22 00:23:23;;;;;;;3.30;3.00;;;;;;;;;;4965113;28;20180;-53
2022/09/22 00:25:49;;;;;;;3.40;3.10;;;;;;;;;;4961047;28;20223;-52
2022/09/22 00:28:16;;;;;;;3.50;3.20;;;;;;;;;;4964625;28;20763;-52
2022/09/22 00:30:42;;;;;;;5.20;3.27;;;;;;;;;;4964997;28;20648;-52
2022/09/22 00:33:09;;;;;;;3.93;3.37;;;;;;;;;;4965768;28;20266;-52
2022/09/22 00:35:38;;;;;;;4.03;3.10;;;;;;;;;;4954484;28;20364;-52
2022/09/22 00:38:05;;;;;;;4.33;3.43;;;;;;;;;;4959419;28;20671;-53
2022/09/22 00:40:32;;;;;;;3.53;3.20;;;;;;;;;;4961749;28;20643;-52
2022/09/22 00:43:14;;;;;;;5.27;3.60;;;;;;;;;;4965988;28;20188;-52
2022/09/22 00:45:41;;;;;;;3.40;3.10;;;;;;;;;;4964371;28;20238;-52
2022/09/22 00:48:07;;;;;;;3.20;2.90;;;;;;;;;;4958445;28;20235;-52
2022/09/22 00:50:33;;;;;;;3.30;3.00;;;;;;;;;;4956677;28;20223;-52
2022/09/22 00:53:02;;;;;;;5.30;3.43;;;;;;;;;;4969238;28;20689;-52
2022/09/22 00:55:37;;;;;;;3.73;2.87;;;;;;;;;;4956081;28;20176;-53
2022/09/22 00:58:06;;;;;;;3.00;2.73;;;;;;;;;;4956394;28;20584;-52
2022/09/22 01:00:32;;;;;;;3.87;3.27;;;;;;;;;;4963651;28;20646;-52
2022/09/22 01:03:00;;;;;;;3.30;2.87;;;;;;;;;;4962925;28;20193;-52
2022/09/22 01:05:27;;;;;;;3.70;3.37;;;;;;;;;;4960027;28;20191;-52
2022/09/22 01:08:10;;;;;;;4.60;3.03;;;;;;;;;;4958923;28;20191;-52
2022/09/22 01:10:36;;;;;;;4.77;2.87;;;;;;;;;;4957140;28;20192;-52
2022/09/22 01:13:16;;;;;;;5.83;3.70;;;;;;;;;;4942289;28;20191;-52
2022/09/22 01:16:00;;;;;;;4.40;3.00;;;;;;;;;;4964504;28;20664;-52
2022/09/22 01:18:26;;;;;;;4.20;3.20;;;;;;;;;;4964088;28;20521;-52
2022/09/22 01:21:11;;;;;;;3.57;3.00;;;;;;;;;;4958238;28;20216;-52
2022/09/22 01:23:43;;;;;;;3.20;2.90;;;;;;;;;;4958579;28;20302;-51
2022/09/22 01:26:30;;;;;;;3.77;3.30;;;;;;;;;;4957662;28;20543;-52
2022/09/22 01:29:15;;;;;;;3.10;2.90;;;;;;;;;;4942279;28;20188;-51
2022/09/22 01:31:54;;;;;;;2.77;2.57;;;;;;;;;;4939596;28;20677;-51
2022/09/22 01:34:31;;;;;;;3.47;3.10;;;;;;;;;;4964130;28;20278;-51
2022/09/22 01:37:10;;;;;;;4.07;3.70;;;;;;;;;;4959875;28;20300;-51
2022/09/22 01:39:51;;;;;;;4.23;2.90;;;;;;;;;;4958165;28;20645;-51
2022/09/22 01:42:33;;;;;;;3.23;2.93;;;;;;;;;;4962974;28;20179;-51
2022/09/22 01:45:09;;;;;;;3.80;2.90;;;;;;;;;;4959704;28;20693;-51
2022/09/22 01:47:39;;;;;;;3.73;3.00;;;;;;;;;;4943731;28;20693;-51
2022/09/22 01:50:08;;;;;;;3.47;3.17;;;;;;;;;;4938540;29;20188;-51
2022/09/22 01:52:35;;;;;;;3.43;2.80;;;;;;;;;;4934281;28;20336;-51
2022/09/22 01:55:41;;;;;;;5.60;3.20;;;;;;;;;;4942176;28;20192;-51
2022/09/22 01:58:12;;;;;;;3.37;2.73;;;;;;;;;;4907655;29;20186;-51
2022/09/22 02:00:40;;;;;;;3.73;2.97;;;;;;;;;;4909895;29;20241;-51
2022/09/22 02:03:12;;;;;;;4.03;3.73;;;;;;;;;;4934871;29;20200;-51
2022/09/22 02:05:41;;;;;;;3.33;2.80;;;;;;;;;;4941600;28;20192;-51
2022/09/22 02:08:09;;;;;;;3.63;3.03;;;;;;;;;;4948174;28;20184;-51
2022/09/22 02:10:38;;;;;;;3.43;3.13;;;;;;;;;;4944920;29;20194;-51
2022/09/22 02:13:04;;;;;;;3.10;2.80;;;;;;;;;;4950439;28;20641;-51
2022/09/22 02:18:18;;;;;;;3.60;3.30;;;;;;;;;;4949057;28;20316;-52
2022/09/22 02:20:44;;;;;;;3.07;2.77;;;;;;;;;;4941020;28;20268;-51
2022/09/22 02:23:10;;;;;;;3.30;2.93;;;;;;;;;;4948324;28;20207;-51
2022/09/22 02:25:37;;;;;;;3.47;2.73;;;;;;;;;;4929936;28;20722;-51
2022/09/22 02:28:05;;;;;;;3.03;2.60;;;;;;;;;;4948535;28;20571;-51
2022/09/22 02:30:31;;;;;;;2.50;2.30;;;;;;;;;;4949589;28;20177;-51
2022/09/22 02:32:57;;;;;;;3.00;2.70;;;;;;;;;;4953760;28;20582;-51
2022/09/22 02:35:25;;;;;;;3.17;2.50;;;;;;;;;;4926829;29;20196;-51
2022/09/22 02:38:02;;;;;;;3.13;2.83;;;;;;;;;;4943327;28;20216;-51
2022/09/22 02:40:28;;;;;;;4.57;2.97;;;;;;;;;;4946939;29;20189;-51
2022/09/22 02:42:59;;;;;;;4.47;2.67;;;;;;;;;;4930670;28;20560;-51
2022/09/22 02:45:28;;;;;;;2.50;2.30;;;;;;;;;;4953937;28;20195;-51
2022/09/22 02:47:57;;;;;;;5.47;2.80;;;;;;;;;;4967144;28;20525;-51
2022/09/22 02:50:25;;;;;;;4.00;2.70;;;;;;;;;;4963328;28;20188;-51
2022/09/22 02:52:52;;;;;;;2.97;2.63;;;;;;;;;;4967679;28;20211;-51
2022/09/22 02:55:18;;;;;;;2.70;2.50;;;;;;;;;;4964892;28;20180;-52
2022/09/22 02:57:51;;;;;;;2.80;2.60;;;;;;;;;;4972953;28;20270;-51
2022/09/22 03:00:17;;;;;;;2.70;2.50;;;;;;;;;;4960372;28;20177;-51
2022/09/22 03:02:43;;;;;;;3.37;2.60;;;;;;;;;;4965935;28;20183;-51
2022/09/22 03:05:09;;;;;;;2.73;2.50;;;;;;;;;;4967909;28;20184;-51
2022/09/22 03:07:35;;;;;;;2.50;2.30;;;;;;;;;;4965256;28;20271;-51
2022/09/22 03:10:01;;;;;;;3.67;2.70;;;;;;;;;;4968657;28;20670;-51
2022/09/22 03:12:27;;;;;;;2.40;2.20;;;;;;;;;;4960536;28;20725;-51
2022/09/22 03:14:53;;;;;;;2.63;2.43;;;;;;;;;;4960703;28;20192;-51
2022/09/22 03:17:22;;;;;;;3.13;2.60;;;;;;;;;;4967004;28;20202;-51
2022/09/22 03:19:48;;;;;;;2.30;2.10;;;;;;;;;;4966848;28;20184;-51
2022/09/22 03:22:14;;;;;;;2.43;2.23;;;;;;;;;;4963185;28;20188;-51
2022/09/22 03:24:40;;;;;;;2.53;2.33;;;;;;;;;;4961404;28;20198;-51
2022/09/22 03:27:06;;;;;;;3.33;2.70;;;;;;;;;;4941980;28;20476;-51
2022/09/22 03:29:38;;;;;;;2.70;2.50;;;;;;;;;;4964841;28;20275;-51
2022/09/22 03:32:11;;;;;;;4.20;3.90;;;;;;;;;;4941826;28;20196;-51
2022/09/22 03:34:37;;;;;;;4.37;2.50;;;;;;;;;;4964206;28;20214;-51
2022/09/22 03:37:03;;;;;;;2.20;2.00;;;;;;;;;;4957784;28;20204;-51
2022/09/22 03:39:32;;;;;;;3.30;2.30;;;;;;;;;;4965538;28;20184;-51
2022/09/22 03:41:58;;;;;;;4.43;2.37;;;;;;;;;;4959945;28;20187;-51
2022/09/22 03:44:25;;;;;;;4.17;2.67;;;;;;;;;;4961468;28;20189;-51
2022/09/22 03:46:52;;;;;;;2.67;2.47;;;;;;;;;;4957351;28;20238;-51
2022/09/22 03:49:18;;;;;;;2.33;2.00;;;;;;;;;;4967800;28;20231;-51
2022/09/22 03:51:44;;;;;;;2.93;2.30;;;;;;;;;;4969796;28;20362;-51
2022/09/22 03:54:11;;;;;;;2.90;2.57;;;;;;;;;;4946038;28;20616;-51
2022/09/22 03:56:37;;;;;;;2.90;2.70;;;;;;;;;;4968768;28;20227;-51
2022/09/22 03:59:04;;;;;;;2.90;2.30;;;;;;;;;;4963761;28;20187;-51
2022/09/22 04:01:30;;;;;;;2.57;2.30;;;;;;;;;;4965566;28;20239;-51
2022/09/22 04:03:56;;;;;;;3.77;2.40;;;;;;;;;;4963609;28;20262;-51
2022/09/22 04:06:22;;;;;;;3.00;2.30;;;;;;;;;;4967279;28;20581;-51
2022/09/22 04:08:48;;;;;;;2.83;2.20;;;;;;;;;;4957688;28;20203;-51
2022/09/22 04:11:14;;;;;;;2.63;2.40;;;;;;;;;;4963286;28;20216;-51
2022/09/22 04:13:41;;;;;;;3.27;2.97;;;;;;;;;;4965978;28;20243;-50
2022/09/22 04:16:07;;;;;;;2.40;2.07;;;;;;;;;;4967141;28;20180;-51
2022/09/22 04:18:33;;;;;;;4.00;2.10;;;;;;;;;;4954224;28;20424;-51
2022/09/22 04:20:59;;;;;;;2.37;2.17;;;;;;;;;;4954499;28;20732;-51
2022/09/22 04:23:26;;;;;;;3.03;2.67;;;;;;;;;;4961782;28;20238;-51
2022/09/22 04:25:52;;;;;;;2.83;2.63;;;;;;;;;;4961742;28;20181;-51
2022/09/22 04:28:18;;;;;;;2.73;2.53;;;;;;;;;;4966672;28;20275;-51
2022/09/22 04:30:46;;;;;;;2.97;2.10;;;;;;;;;;4953943;28;20176;-51
2022/09/22 04:33:12;;;;;;;4.17;3.67;;;;;;;;;;4961878;28;20708;-51
2022/09/22 04:35:40;;;;;;;2.93;2.43;;;;;;;;;;4955814;28;20551;-51
2022/09/22 04:38:06;;;;;;;2.33;2.13;;;;;;;;;;4966317;28;20613;-51
2022/09/22 04:40:32;;;;;;;2.77;2.20;;;;;;;;;;4959460;28;20631;-51
2022/09/22 04:42:58;;;;;;;2.83;2.17;;;;;;;;;;4959878;28;20199;-51
2022/09/22 04:45:25;;;;;;;2.77;2.20;;;;;;;;;;4956676;28;20195;-51
2022/09/22 04:47:52;;;;;;;4.10;2.63;;;;;;;;;;4963646;28;20254;-52
2022/09/22 04:50:19;;;;;;;2.57;2.37;;;;;;;;;;4964860;28;20648;-51
2022/09/22 04:52:46;;;;;;;2.17;1.97;;;;;;;;;;4960795;28;20650;-51
2022/09/22 04:55:13;;;;;;;2.47;2.27;;;;;;;;;;4956813;28;20191;-52
2022/09/22 04:57:39;;;;;;;2.20;2.00;;;;;;;;;;4965387;28;20293;-51
2022/09/22 05:00:08;;;;;;;3.03;2.67;;;;;;;;;;4966759;28;20215;-51
2022/09/22 05:02:35;;;;;;;2.70;2.50;;;;;;;;;;4959824;28;20183;-51
2022/09/22 05:05:01;;;;;;;2.40;2.20;;;;;;;;;;4962831;28;20361;-51
2022/09/22 05:07:27;;;;;;;2.40;2.20;;;;;;;;;;4968391;28;20241;-51
2022/09/22 05:09:53;;;;;;;2.40;2.10;;;;;;;;;;4971402;28;20188;-51
2022/09/22 05:12:20;;;;;;;2.20;2.00;;;;;;;;;;4966161;28;20203;-50
2022/09/22 05:14:46;;;;;;;2.23;2.03;;;;;;;;;;4961554;28;20559;-51
2022/09/22 05:17:12;;;;;;;3.13;2.33;;;;;;;;;;4960743;28;20172;-51
2022/09/22 05:19:39;;;;;;;3.13;2.47;;;;;;;;;;4962476;28;20656;-51
2022/09/22 05:22:05;;;;;;;3.97;2.90;;;;;;;;;;4966683;28;20179;-52
2022/09/22 05:24:31;;;;;;;7.00;2.30;;;;;;;;;;4959055;28;20254;-51
2022/09/22 05:26:57;;;;;;;4.93;2.47;;;;;;;;;;4958796;28;20187;-52
2022/09/22 05:29:24;;;;;;;4.27;2.23;;;;;;;;;;4965898;28;20270;-51
2022/09/22 05:31:50;;;;;;;2.50;2.20;;;;;;;;;;4956859;28;20663;-52
2022/09/22 05:34:16;;;;;;;5.93;2.83;;;;;;;;;;4956299;28;20180;-53
2022/09/22 05:36:42;;;;;;;2.53;2.33;;;;;;;;;;4959977;28;20207;-53
2022/09/22 05:39:08;;;;;;;4.73;2.80;;;;;;;;;;4960940;28;20211;-52
2022/09/22 05:41:34;;;;;;;2.77;2.47;;;;;;;;;;4953928;28;20279;-52
2022/09/22 05:44:00;;;;;;;5.47;2.77;;;;;;;;;;4963086;28;20180;-52
2022/09/22 05:46:27;;;;;;;3.90;2.60;;;;;;;;;;4962465;28;20280;-53
2022/09/22 05:48:53;;;;;;;7.33;2.57;;;;;;;;;;4952125;28;20794;-53
2022/09/22 05:51:19;;;;;;;2.20;2.00;;;;;;;;;;4953972;28;20212;-53
2022/09/22 05:53:45;;;;;;;4.07;3.37;;;;;;;;;;4950351;28;20255;-53
2022/09/22 05:56:11;;;;;;;6.17;2.20;;;;;;;;;;4954970;28;20174;-53
2022/09/22 05:58:37;;;;;;;4.57;2.60;;;;;;;;;;4958414;28;20211;-53
2022/09/22 06:01:04;;;;;;;2.47;2.27;;;;;;;;;;4961917;28;20211;-53
2022/09/22 06:03:30;;;;;;;3.33;2.40;;;;;;;;;;4960648;28;20180;-53
2022/09/22 06:05:56;;;;;;;4.90;2.97;;;;;;;;;;4950402;28;20203;-53
2022/09/22 06:08:22;;;;;;;4.03;2.53;;;;;;;;;;4960857;28;20190;-53
2022/09/22 06:10:50;;;;;;;3.90;2.40;;;;;;;;;;4963895;28;20180;-53
2022/09/22 06:13:16;;;;;;;3.10;2.80;;;;;;;;;;4963983;28;20198;-53
2022/09/22 06:15:48;;;;;;;2.93;2.73;;;;;;;;;;4964305;28;20187;-53
2022/09/22 06:18:16;;;;;;;4.37;3.33;;;;;;;;;;4958008;28;20188;-53
2022/09/22 06:20:43;;;;;;;4.23;3.83;;;;;;;;;;4960166;28;20208;-54
2022/09/22 06:23:09;;;;;;;3.80;2.60;;;;;;;;;;4969925;28;20183;-53
2022/09/22 06:25:35;;;;;;;5.37;2.60;;;;;;;;;;4959468;28;21208;-53
2022/09/22 06:28:04;;;;;;;4.97;3.10;;;;;;;;;;4963760;28;20180;-53
2022/09/22 06:30:30;;;;;;;4.63;2.40;;;;;;;;;;4960749;28;20745;-53
2022/09/22 06:32:56;;;;;;;5.27;2.90;;;;;;;;;;4961444;28;20212;-53
2022/09/22 06:35:23;;;;;;;4.10;3.00;;;;;;;;;;4955164;28;20762;-54
2022/09/22 06:37:55;;;;;;;4.20;3.10;;;;;;;;;;4948049;28;20222;-53
2022/09/22 06:40:22;;;;;;;5.73;2.50;;;;;;;;;;4960226;28;20195;-53
2022/09/22 06:42:48;;;;;;;5.00;3.03;;;;;;;;;;4952793;28;20534;-53
2022/09/22 06:45:15;;;;;;;5.00;2.80;;;;;;;;;;4963704;28;20691;-53
2022/09/22 06:47:41;;;;;;;5.33;3.07;;;;;;;;;;4965616;28;20236;-53
2022/09/22 06:50:08;;;;;;;2.90;2.60;;;;;;;;;;4963122;28;20192;-53
2022/09/22 06:52:35;;;;;;;3.07;2.30;;;;;;;;;;4966082;28;20222;-53
2022/09/22 06:55:01;;;;;;;3.20;2.73;;;;;;;;;;4962348;28;20191;-54
2022/09/22 06:57:29;;;;;;;3.70;2.70;;;;;;;;;;4959469;28;20638;-53
2022/09/22 06:59:55;;;;;;;5.03;3.07;;;;;;;;;;4963274;28;20173;-54
2022/09/22 07:02:27;;;;;;;4.67;2.70;;;;;;;;;;4967730;28;20191;-53
2022/09/22 07:04:54;;;;;;;4.17;3.53;;;;;;;;;;4966823;28;20211;-53
2022/09/22 07:07:20;;;;;;;3.50;2.60;;;;;;;;;;4965594;28;20188;-53
2022/09/22 07:09:47;;;;;;;2.43;2.23;;;;;;;;;;4961967;28;20245;-53
2022/09/22 07:12:14;;;;;;;3.10;2.50;;;;;;;;;;4958092;28;20704;-53
2022/09/22 07:14:40;;;;;;;2.80;2.50;;;;;;;;;;4958148;28;20184;-53
2022/09/22 07:17:06;;;;;;;3.73;2.40;;;;;;;;;;4962220;28;20194;-52
2022/09/22 07:19:35;;;;;;;3.47;2.43;;;;;;;;;;4962698;28;20239;-53
2022/09/22 07:22:02;;;;;;;3.47;2.07;;;;;;;;;;4968244;28;20275;-53
2022/09/22 07:24:28;;;;;;;3.33;2.37;;;;;;;;;;4966466;28;20184;-53
2022/09/22 07:26:54;;;;;;;3.00;2.33;;;;;;;;;;4949989;28;20192;-53
2022/09/22 07:29:20;;;;;;;2.87;2.47;;;;;;;;;;4975238;28;20246;-53
2022/09/22 07:31:46;;;;;;;3.57;2.50;;;;;;;;;;4962857;28;20924;-53
2022/09/22 07:34:13;;;;;;;2.63;2.40;;;;;;;;;;4970621;28;20531;-53
2022/09/22 07:36:40;;;;;;;2.60;2.17;;;;;;;;;;4970147;28;20211;-52
2022/09/22 07:39:09;;;;;;;3.60;2.63;;;;;;;;;;4945418;28;20184;-52
2022/09/22 07:41:40;;;;;;;3.77;2.93;;;;;;;;;;4962874;28;20191;-52
2022/09/22 07:46:51;;;;;;;4.07;2.50;;;;;;;;;;4965079;28;20294;-53
2022/09/22 07:49:19;;;;;;;3.10;2.47;;;;;;;;;;4962174;28;20189;-53
2022/09/22 07:51:45;;;;;;;3.97;1.90;;;;;;;;;;4956279;28;20685;-53
2022/09/22 07:54:12;;;;;;;2.37;2.13;;;;;;;;;;4967463;28;20548;-53
2022/09/22 07:56:39;;;;;;;2.50;2.10;;;;;;;;;;4947269;28;20225;-53
2022/09/22 07:59:08;;;;;;;2.70;2.50;;;;;;;;;;4961416;28;20185;-52
2022/09/22 08:01:35;;;;;;;4.40;3.00;;;;;;;;;;4963981;28;20229;-53
2022/09/22 08:04:01;;;;;;;3.23;2.20;;;;;;;;;;4945965;28;20188;-52
2022/09/22 08:06:27;;;;;;;4.73;3.03;;;;;;;;;;4957576;28;20187;-53
2022/09/22 08:08:55;;;;;;;3.63;2.60;;;;;;;;;;4959254;28;20191;-53
2022/09/22 08:11:31;;;;;;;4.80;2.53;;;;;;;;;;4946604;28;20304;-53
2022/09/22 08:13:58;;;;;;;2.63;2.37;;;;;;;;;;4967114;28;20562;-53
2022/09/22 08:16:29;;;;;;;2.50;2.30;;;;;;;;;;4961083;28;20188;-52
2022/09/22 08:18:59;;;;;;;3.07;2.30;;;;;;;;;;4963900;28;20230;-53
2022/09/22 08:21:26;;;;;;;4.20;2.13;;;;;;;;;;4963356;28;20600;-53
2022/09/22 08:23:53;;;;;;;2.73;1.67;;;;;;;;;;4964190;28;20227;-53
2022/09/22 08:26:20;;;;;;;2.63;1.90;;;;;;;;;;4950268;28;20181;-53
2022/09/22 08:28:50;;;;;;;3.03;2.20;;;;;;;;;;4972827;28;20187;-53
2022/09/22 08:31:19;;;;;;;4.67;2.27;;;;;;;;;;4953407;28;20761;-53
2022/09/22 08:33:46;;;;;;;2.13;1.93;;;;;;;;;;4945309;28;20250;-52
2022/09/22 08:36:12;;;;;;;2.70;1.83;;;;;;;;;;4961413;28;20179;-53
2022/09/22 08:38:38;;;;;;;2.43;2.20;;;;;;;;;;4965048;28;20211;-53
2022/09/22 08:41:29;;;;;;;5.13;2.60;;;;;;;;;;4963186;28;20183;-53
2022/09/22 08:43:59;;;;;;;1.97;1.83;;;;;;;;;;4965800;28;20725;-53
2022/09/22 08:46:33;;;;;;;3.27;2.00;;;;;;;;;;4962018;28;20273;-53
2022/09/22 08:51:54;;;;;;;3.60;1.90;;;;;;;;;;4965985;28;20222;-53
2022/09/22 08:54:23;;;;;;;2.50;2.10;;;;;;;;;;4958658;28;20188;-53
2022/09/22 08:57:06;;;;;;;2.10;1.90;;;;;;;;;;4963767;28;20199;-53
2022/09/22 08:59:38;;;;;;;2.20;1.90;;;;;;;;;;4962292;28;20263;-53
2022/09/22 09:02:43;;;;;;;1.67;1.57;;;;;;;;;;4963249;28;20195;-53
2022/09/22 09:05:11;;;;;;;3.80;2.13;;;;;;;;;;4924247;29;20196;-53
2022/09/22 09:07:41;;;;;;;2.27;2.03;;;;;;;;;;4917523;29;20327;-53
2022/09/22 09:10:12;;;;;;;4.10;2.13;;;;;;;;;;4937735;28;20203;-53
2022/09/22 09:12:50;;;;;;;2.73;2.13;;;;;;;;;;4960642;28;20207;-53
2022/09/22 09:15:27;;;;;;;3.27;2.63;;;;;;;;;;4939325;28;20263;-53
2022/09/22 09:17:57;;;;;;;2.70;1.90;;;;;;;;;;4953451;28;20229;-53
2022/09/22 09:20:23;;;;;;;1.83;1.67;;;;;;;;;;4962475;28;20188;-53
2022/09/22 09:22:56;;;;;;;4.13;2.00;;;;;;;;;;4968341;28;20184;-53
2022/09/22 09:25:22;;;;;;;3.77;2.63;;;;;;;;;;4954886;28;20678;-53
2022/09/22 09:27:54;;;;;;;5.30;2.40;;;;;;;;;;4945655;28;20191;-53
2022/09/22 09:30:21;;;;;;;3.27;2.57;;;;;;;;;;4957376;28;20651;-53
2022/09/22 09:33:09;;;;;;;5.25;2.30;;;;;;;;;;4954916;28;20448;-52
2022/09/22 09:35:44;;;;;;;3.10;2.40;;;;;;;;;;4963503;28;20175;-52
2022/09/22 09:38:14;;;;;;;4.40;2.23;;;;;;;;;;4948399;28;20229;-53
2022/09/22 09:40:41;;;;;;;3.07;2.13;;;;;;;;;;4951677;28;20582;-52
2022/09/22 09:43:07;;;;;;;2.77;2.50;;;;;;;;;;4961313;28;20184;-53
2022/09/22 09:45:43;;;;;;;3.93;2.90;;;;;;;;;;4944802;28;20192;-53
2022/09/22 09:48:21;;;;;;;4.60;2.43;;;;;;;;;;4936363;28;20227;-53
2022/09/22 09:50:47;;;;;;;2.80;2.50;;;;;;;;;;4964074;28;20570;-53
2022/09/22 09:53:19;;;;;;;4.50;2.30;;;;;;;;;;4963913;28;20320;-53
2022/09/22 09:55:45;;;;;;;2.40;2.03;;;;;;;;;;4959030;28;20276;-52
2022/09/22 10:00:29;;;;;;;6.17;2.47;;;;;;;;;;4939860;28;20487;-52
2022/09/22 10:01:04;;;;;;;3.83;2.13;;;;;;;;;;4955216;28;20182;-52
2022/09/22 10:03:32;;;;;;;2.23;2.03;;;;;;;;;;4952058;28;20173;-52
2022/09/22 10:06:01;;;;;;;2.40;2.20;;;;;;;;;;4952615;28;20188;-53
2022/09/22 10:08:30;;;;;;;3.53;2.30;;;;;;;;;;4965107;28;20669;-52
2022/09/22 10:10:58;;;;;;;2.47;2.27;;;;;;;;;;4945967;28;20496;-53
2022/09/22 10:13:32;;;;;;;2.60;2.00;;;;;;;;;;4958818;28;20212;-53
2022/09/22 10:16:07;;;;;;;3.10;2.23;;;;;;;;;;4958354;28;20661;-53
2022/09/22 10:18:33;;;;;;;4.97;3.20;;;;;;;;;;4943274;28;20497;-52
2022/09/22 10:21:17;;;;;;;2.57;2.37;;;;;;;;;;4966020;28;20572;-52
2022/09/22 10:23:44;;;;;;;2.97;2.43;;;;;;;;;;4945528;28;20690;-53
2022/09/22 10:26:15;;;;;;;3.23;2.00;;;;;;;;;;4962341;28;20180;-53
2022/09/22 10:28:41;;;;;;;3.83;2.23;;;;;;;;;;4965376;28;20435;-52
2022/09/22 10:31:17;;;;;;;4.20;2.10;;;;;;;;;;4964848;28;20273;-52
2022/09/22 10:33:53;;;;;;;3.63;2.00;;;;;;;;;;4955058;28;20186;-52
2022/09/22 10:36:19;;;;;;;2.97;1.90;;;;;;;;;;4960898;28;20190;-53
2022/09/22 10:38:45;;;;;;;2.30;2.10;;;;;;;;;;4942555;28;20514;-53
2022/09/22 10:41:13;;;;;;;2.43;2.00;;;;;;;;;;4957636;28;20237;-53
2022/09/22 10:43:42;;;;;;;1.83;1.73;;;;;;;;;;4960741;28;20618;-53
2022/09/22 10:46:47;;;;;;;1.57;1.47;;;;;;;;;;4965637;28;20231;-53
2022/09/22 10:49:34;;;;;;;3.90;2.07;;;;;;;;;;4927296;29;20593;-54
2022/09/22 10:52:07;;;;;;;3.27;2.00;;;;;;;;;;4923326;28;20250;-53
2022/09/22 10:54:40;;;;;;;2.30;2.00;;;;;;;;;;4940506;28;20189;-52
2022/09/22 10:57:15;;;;;;;2.50;1.70;;;;;;;;;;4936144;28;20185;-52
2022/09/22 10:59:55;;;;;;;2.10;1.90;;;;;;;;;;4939719;28;20658;-53
2022/09/22 11:02:21;;;;;;;4.40;1.60;;;;;;;;;;4939611;28;20177;-53
2022/09/22 11:04:51;;;;;;;1.73;1.63;;;;;;;;;;4946630;29;20191;-52
2022/09/22 11:13:16;;;;;;;3.40;1.70;;;;;;;;;;4944806;28;20216;-52
2022/09/22 11:15:53;;;;;;;2.17;1.93;;;;;;;;;;4946287;28;20194;-53
2022/09/22 11:18:30;;;;;;;3.67;1.70;;;;;;;;;;4948226;28;21501;-53
2022/09/22 11:21:08;;;;;;;2.10;1.60;;;;;;;;;;4940148;28;20386;-53
2022/09/22 11:23:35;;;;;;;2.03;1.53;;;;;;;;;;4937393;28;20241;-53
2022/09/22 11:26:01;;;;;;;4.90;1.90;;;;;;;;;;4936538;29;20192;-52
2022/09/22 11:28:39;;;;;;;1.73;1.60;;;;;;;;;;4943050;28;20261;-53
2022/09/22 11:31:05;;;;;;;4.03;2.00;;;;;;;;;;4937400;28;20183;-54
2022/09/22 11:33:47;;;;;;;1.40;1.30;;;;;;;;;;4931616;29;20196;-53
2022/09/22 11:36:19;;;;;;;1.60;1.50;;;;;;;;;;4934671;28;20225;-53
2022/09/22 11:38:45;;;;;;;1.80;1.70;;;;;;;;;;4940944;28;20225;-52
2022/09/22 11:41:30;;;;;;;1.80;1.70;;;;;;;;;;4949317;28;20188;-51
2022/09/22 11:44:05;;;;;;;3.53;1.80;;;;;;;;;;4925754;29;20208;-51
2022/09/22 11:46:31;;;;;;;1.70;1.60;;;;;;;;;;4935415;28;20738;-53
2022/09/22 11:49:06;;;;;;;2.87;1.97;;;;;;;;;;4950003;28;20555;-53
2022/09/22 11:51:35;;;;;;;2.10;1.53;;;;;;;;;;4964415;28;20714;-53
2022/09/22 11:54:01;;;;;;;2.10;1.83;;;;;;;;;;4948133;28;20184;-53
2022/09/22 11:56:31;;;;;;;1.63;1.53;;;;;;;;;;4971037;28;20573;-53
2022/09/22 11:59:00;;;;;;;2.30;2.03;;;;;;;;;;4970426;28;20175;-53
2022/09/22 12:01:29;;;;;;;3.80;1.67;;;;;;;;;;4970021;28;20716;-53
2022/09/22 12:04:00;;;;;;;1.67;1.57;;;;;;;;;;4966143;28;20183;-53
2022/09/22 12:06:29;;;;;;;1.80;1.67;;;;;;;;;;4951086;29;20534;-53
2022/09/22 12:08:56;;;;;;;3.27;1.60;;;;;;;;;;4954563;28;20183;-53
2022/09/22 12:11:23;;;;;;;1.70;1.60;;;;;;;;;;4967186;28;20194;-53
2022/09/22 12:13:52;;;;;;;1.73;1.63;;;;;;;;;;4967260;28;20630;-53
2022/09/22 12:16:18;;;;;;;1.60;1.50;;;;;;;;;;4968119;28;20184;-53
2022/09/22 12:19:00;;;;;;;2.67;1.67;;;;;;;;;;4970685;28;20589;-53
2022/09/22 12:21:44;;;;;;;1.60;1.50;;;;;;;;;;4953575;28;20196;-53
2022/09/22 12:24:12;;;;;;;1.50;1.40;;;;;;;;;;4968831;28;20726;-53
2022/09/22 12:26:42;;;;;;;1.47;1.37;;;;;;;;;;4951236;28;20188;-53
2022/09/22 12:29:29;;;;;;;1.70;1.60;;;;;;;;;;4952748;28;20187;-53
2022/09/22 12:31:57;;;;;;;1.43;1.33;;;;;;;;;;4967767;28;20611;-53
2022/09/22 12:34:25;;;;;;;1.60;1.50;;;;;;;;;;4971137;28;20409;-53
2022/09/22 12:36:58;;;;;;;2.87;2.13;;;;;;;;;;4935921;28;20229;-53
2022/09/22 12:39:27;;;;;;;3.13;2.83;;;;;;;;;;4971820;28;20175;-53
2022/09/22 12:42:04;;;;;;;1.67;1.57;;;;;;;;;;4948564;28;20206;-53
2022/09/22 12:44:33;;;;;;;1.60;1.50;;;;;;;;;;4969874;28;20252;-53
2022/09/22 12:47:01;;;;;;;1.87;1.60;;;;;;;;;;4969949;28;20235;-53
2022/09/22 12:49:27;;;;;;;2.47;1.47;;;;;;;;;;4964641;28;20208;-53
2022/09/22 12:51:53;;;;;;;1.90;1.70;;;;;;;;;;4950487;29;20208;-52
2022/09/22 12:54:22;;;;;;;1.33;1.23;;;;;;;;;;4953979;28;20165;-53
2022/09/22 12:57:07;;;;;;;2.77;1.60;;;;;;;;;;4969263;28;20203;-53
2022/09/22 12:59:39;;;;;;;2.07;1.53;;;;;;;;;;4969248;28;20709;-54
2022/09/22 13:02:14;;;;;;;2.67;1.60;;;;;;;;;;4969176;28;20183;-54
2022/09/22 13:05:00;;;;;;;2.10;1.70;;;;;;;;;;4954832;28;20191;-53
2022/09/22 13:07:39;;;;;;;3.30;1.80;;;;;;;;;;4929063;28;20291;-53
2022/09/22 13:10:23;;;;;;;2.30;2.20;;;;;;;;;;4962507;28;20270;-53
2022/09/22 13:15:32;;;;;;;2.10;1.85;;;;;;;;;;4949677;28;20822;-53
2022/09/22 13:18:01;;;;;;;1.90;1.80;;;;;;;;;;4967141;28;20174;-54
2022/09/22 13:20:27;;;;;;;2.70;1.70;;;;;;;;;;4969169;28;20185;-53
2022/09/22 13:22:55;;;;;;;3.73;1.80;;;;;;;;;;4969308;28;20190;-53
2022/09/22 13:25:23;;;;;;;2.37;2.07;;;;;;;;;;4962888;28;20660;-53
2022/09/22 13:28:01;;;;;;;2.07;1.97;;;;;;;;;;4969753;28;20165;-53
2022/09/22 13:30:27;;;;;;;2.40;1.83;;;;;;;;;;4961318;28;20260;-53
2022/09/22 13:32:53;;;;;;;2.07;1.77;;;;;;;;;;4950971;28;20260;-53
2022/09/22 13:35:30;;;;;;;2.03;1.83;;;;;;;;;;4961814;28;20184;-54
2022/09/22 13:37:57;;;;;;;1.80;1.70;;;;;;;;;;4968988;28;20262;-53
2022/09/22 13:40:25;;;;;;;2.10;1.90;;;;;;;;;;4966545;28;20256;-54
2022/09/22 13:42:53;;;;;;;3.33;2.10;;;;;;;;;;4950073;29;20192;-55
2022/09/22 13:45:24;;;;;;;2.03;1.93;;;;;;;;;;4965216;28;20678;-54
2022/09/22 13:47:52;;;;;;;3.50;1.80;;;;;;;;;;4965824;28;20673;-54
2022/09/22 13:50:19;;;;;;;2.10;2.00;;;;;;;;;;4963782;28;20180;-55
2022/09/22 13:52:47;;;;;;;2.43;2.07;;;;;;;;;;4968507;28;20212;-54
2022/09/22 13:55:13;;;;;;;1.90;1.53;;;;;;;;;;4959496;28;20187;-54
2022/09/22 13:57:40;;;;;;;2.57;2.37;;;;;;;;;;4967927;28;20175;-54
2022/09/22 14:00:08;;;;;;;2.50;2.30;;;;;;;;;;4960447;28;20174;-54
2022/09/22 14:02:35;;;;;;;2.17;1.97;;;;;;;;;;4960219;28;20175;-54
2022/09/22 14:05:04;;;;;;;1.77;1.67;;;;;;;;;;4964731;28;20188;-54
2022/09/22 14:07:32;;;;;;;2.35;2.15;;;;;;;;;;4964295;28;20783;-53
2022/09/22 14:09:59;;;;;;;3.07;2.20;;;;;;;;;;4968352;28;20176;-54
2022/09/22 14:12:27;;;;;;;1.90;1.80;;;;;;;;;;4967383;28;20541;-54
2022/09/22 14:14:53;;;;;;;2.37;1.93;;;;;;;;;;4958997;28;20609;-54
2022/09/22 14:17:21;;;;;;;2.00;1.90;;;;;;;;;;4957623;28;20183;-54
2022/09/22 14:20:04;;;;;;;2.10;2.00;;;;;;;;;;4962204;28;20765;-53
2022/09/22 14:22:39;;;;;;;2.40;2.20;;;;;;;;;;4957810;28;20194;-54
2022/09/22 14:25:21;;;;;;;1.90;1.80;;;;;;;;;;4938721;28;20197;-53
2022/09/22 14:27:54;;;;;;;1.97;1.80;;;;;;;;;;4959561;28;20245;-53
2022/09/22 14:30:21;;;;;;;2.20;2.00;;;;;;;;;;4948790;28;20631;-53
2022/09/22 14:32:49;;;;;;;1.83;1.73;;;;;;;;;;4968204;28;20202;-53
2022/09/22 14:35:37;;;;;;;2.40;2.20;;;;;;;;;;4944912;29;20195;-54
2022/09/22 14:38:06;;;;;;;2.37;2.27;;;;;;;;;;4949220;29;20549;-53
2022/09/22 14:40:32;;;;;;;2.20;2.10;;;;;;;;;;4955120;28;20515;-53
2022/09/22 14:43:02;;;;;;;2.40;2.20;;;;;;;;;;4963461;28;20194;-53
2022/09/22 14:45:28;;;;;;;2.77;2.00;;;;;;;;;;4954502;28;20174;-53
2022/09/22 14:48:09;;;;;;;2.23;1.97;;;;;;;;;;4949017;28;20274;-53
2022/09/22 14:50:44;;;;;;;2.43;2.23;;;;;;;;;;4954758;28;20555;-53
2022/09/22 14:53:17;;;;;;;2.00;1.90;;;;;;;;;;4952877;28;20566;-53
2022/09/22 14:55:45;;;;;;;1.90;1.80;;;;;;;;;;4955091;28;20231;-52
2022/09/22 14:58:16;;;;;;;2.17;1.97;;;;;;;;;;4951720;28;20183;-53
2022/09/22 15:04:01;;;;;;;2.72;2.53;;;;;;;;;;4948716;28;20453;-53
2022/09/22 15:06:32;;;;;;;4.80;2.20;;;;;;;;;;4965701;28;20705;-54
2022/09/22 15:09:02;;;;;;;2.40;2.10;;;;;;;;;;4955179;28;20180;-53
2022/09/22 15:11:47;;;;;;;2.03;1.90;;;;;;;;;;4948143;28;20331;-56
2022/09/22 15:14:24;;;;;;;3.17;2.00;;;;;;;;;;4970124;28;20170;-53
2022/09/22 15:16:50;;;;;;;2.27;2.10;;;;;;;;;;4965387;28;20259;-53
2022/09/22 15:19:16;;;;;;;2.23;2.03;;;;;;;;;;4968084;28;20680;-51